sensor_id;sensor_type;location;lat;lon;timestamp;P1;durP1;ratioP1;P2;durP2;ratioP2
17598;SDS011;8918;52.092;5.232;2023-06-22T00:01:48;9.55;;;6.72;;
17598;SDS011;8918;52.092;5.232;2023-06-22T00:04:13;8.40;;;7.07;;
17598;SDS011;8918;52.092;5.232;2023-06-22T00:06:39;9.38;;;7.18;;
17598;SDS011;8918;52.092;5.232;2023-06-22T00:09:04;8.20;;;7.15;;
17598;SDS011;8918;52.092;5.232;2023-06-22T00:11:31;7.85;;;6.93;;
17598;SDS011;8918;52.092;5.232;2023-06-22T00:13:58;8.55;;;6.85;;
17598;SDS011;8918;52.092;5.232;2023-06-22T00:16:27;8.75;;;7.20;;
17598;SDS011;8918;52.092;5.232;2023-06-22T00:18:53;7.30;;;6.60;;
17598;SDS011;8918;52.092;5.232;2023-06-22T00:21:18;9.43;;;7.10;;
17598;SDS011;8918;52.092;5.232;2023-06-22T00:23:45;7.35;;;6.07;;
17598;SDS011;8918;52.092;5.232;2023-06-22T00:26:11;8.38;;;6.82;;
17598;SDS011;8918;52.092;5.232;2023-06-22T00:28:36;8.10;;;6.20;;
17598;SDS011;8918;52.092;5.232;2023-06-22T00:31:02;9.52;;;6.45;;
17598;SDS011;8918;52.092;5.232;2023-06-22T00:33:28;7.60;;;6.40;;
17598;SDS011;8918;52.092;5.232;2023-06-22T00:35:53;8.10;;;6.60;;
17598;SDS011;8918;52.092;5.232;2023-06-22T00:38:19;8.18;;;6.38;;
17598;SDS011;8918;52.092;5.232;2023-06-22T00:40:45;7.15;;;6.40;;
17598;SDS011;8918;52.092;5.232;2023-06-22T00:43:11;7.40;;;6.70;;
17598;SDS011;8918;52.092;5.232;2023-06-22T00:45:37;8.52;;;6.72;;
17598;SDS011;8918;52.092;5.232;2023-06-22T00:48:03;8.07;;;6.70;;
17598;SDS011;8918;52.092;5.232;2023-06-22T00:50:31;7.22;;;6.38;;
17598;SDS011;8918;52.092;5.232;2023-06-22T00:52:59;7.18;;;6.22;;
17598;SDS011;8918;52.092;5.232;2023-06-22T00:55:32;7.78;;;6.85;;
17598;SDS011;8918;52.092;5.232;2023-06-22T00:58:09;8.07;;;6.55;;
17598;SDS011;8918;52.092;5.232;2023-06-22T01:00:36;7.45;;;6.30;;
17598;SDS011;8918;52.092;5.232;2023-06-22T01:03:03;9.40;;;6.55;;
17598;SDS011;8918;52.092;5.232;2023-06-22T01:05:29;7.13;;;6.07;;
17598;SDS011;8918;52.092;5.232;2023-06-22T01:10:28;8.18;;;6.80;;
17598;SDS011;8918;52.092;5.232;2023-06-22T01:15:57;9.23;;;6.88;;
17598;SDS011;8918;52.092;5.232;2023-06-22T01:18:28;9.00;;;6.85;;
17598;SDS011;8918;52.092;5.232;2023-06-22T01:20:58;9.55;;;7.10;;
17598;SDS011;8918;52.092;5.232;2023-06-22T01:29:04;7.40;;;6.57;;
17598;SDS011;8918;52.092;5.232;2023-06-22T01:31:32;8.82;;;6.40;;
17598;SDS011;8918;52.092;5.232;2023-06-22T01:34:01;9.05;;;7.05;;
17598;SDS011;8918;52.092;5.232;2023-06-22T01:36:29;7.38;;;6.25;;
17598;SDS011;8918;52.092;5.232;2023-06-22T01:38:57;8.27;;;6.30;;
17598;SDS011;8918;52.092;5.232;2023-06-22T01:41:27;8.65;;;7.10;;
17598;SDS011;8918;52.092;5.232;2023-06-22T01:43:54;6.80;;;6.10;;
17598;SDS011;8918;52.092;5.232;2023-06-22T01:46:21;7.85;;;6.30;;
17598;SDS011;8918;52.092;5.232;2023-06-22T01:48:47;6.82;;;6.13;;
17598;SDS011;8918;52.092;5.232;2023-06-22T01:51:13;7.60;;;6.35;;
17598;SDS011;8918;52.092;5.232;2023-06-22T01:53:39;8.43;;;6.72;;
17598;SDS011;8918;52.092;5.232;2023-06-22T01:56:05;8.35;;;5.72;;
17598;SDS011;8918;52.092;5.232;2023-06-22T01:58:31;9.52;;;6.80;;
17598;SDS011;8918;52.092;5.232;2023-06-22T02:01:00;7.72;;;6.60;;
17598;SDS011;8918;52.092;5.232;2023-06-22T02:03:32;10.23;;;7.25;;
17598;SDS011;8918;52.092;5.232;2023-06-22T02:06:03;10.07;;;6.47;;
17598;SDS011;8918;52.092;5.232;2023-06-22T02:08:35;9.27;;;7.13;;
17598;SDS011;8918;52.092;5.232;2023-06-22T02:11:05;7.82;;;7.03;;
17598;SDS011;8918;52.092;5.232;2023-06-22T02:13:33;9.13;;;7.53;;
17598;SDS011;8918;52.092;5.232;2023-06-22T02:15:59;9.27;;;7.13;;
17598;SDS011;8918;52.092;5.232;2023-06-22T02:18:25;11.00;;;7.72;;
17598;SDS011;8918;52.092;5.232;2023-06-22T02:20:51;13.55;;;8.20;;
17598;SDS011;8918;52.092;5.232;2023-06-22T02:23:17;9.52;;;7.95;;
17598;SDS011;8918;52.092;5.232;2023-06-22T02:25:43;9.55;;;7.68;;
17598;SDS011;8918;52.092;5.232;2023-06-22T02:28:09;9.70;;;7.43;;
17598;SDS011;8918;52.092;5.232;2023-06-22T02:30:35;10.32;;;8.10;;
17598;SDS011;8918;52.092;5.232;2023-06-22T02:33:00;9.05;;;7.70;;
17598;SDS011;8918;52.092;5.232;2023-06-22T02:35:26;8.85;;;7.80;;
17598;SDS011;8918;52.092;5.232;2023-06-22T02:37:56;8.63;;;7.72;;
17598;SDS011;8918;52.092;5.232;2023-06-22T02:40:26;8.77;;;7.88;;
17598;SDS011;8918;52.092;5.232;2023-06-22T02:42:52;10.02;;;7.63;;
17598;SDS011;8918;52.092;5.232;2023-06-22T02:45:17;10.30;;;7.93;;
17598;SDS011;8918;52.092;5.232;2023-06-22T02:47:43;9.18;;;7.90;;
17598;SDS011;8918;52.092;5.232;2023-06-22T02:50:09;9.73;;;7.65;;
17598;SDS011;8918;52.092;5.232;2023-06-22T02:52:35;10.15;;;7.80;;
17598;SDS011;8918;52.092;5.232;2023-06-22T02:55:00;9.88;;;7.85;;
17598;SDS011;8918;52.092;5.232;2023-06-22T02:57:26;9.63;;;7.57;;
17598;SDS011;8918;52.092;5.232;2023-06-22T02:59:52;8.70;;;7.60;;
17598;SDS011;8918;52.092;5.232;2023-06-22T03:02:17;9.18;;;8.07;;
17598;SDS011;8918;52.092;5.232;2023-06-22T03:04:45;9.63;;;8.00;;
17598;SDS011;8918;52.092;5.232;2023-06-22T03:07:14;11.73;;;8.23;;
17598;SDS011;8918;52.092;5.232;2023-06-22T03:09:40;10.18;;;7.95;;
17598;SDS011;8918;52.092;5.232;2023-06-22T03:12:07;9.68;;;8.23;;
17598;SDS011;8918;52.092;5.232;2023-06-22T03:14:33;10.10;;;7.90;;
17598;SDS011;8918;52.092;5.232;2023-06-22T03:16:59;11.15;;;8.20;;
17598;SDS011;8918;52.092;5.232;2023-06-22T03:19:28;9.45;;;8.05;;
17598;SDS011;8918;52.092;5.232;2023-06-22T03:21:54;9.57;;;7.97;;
17598;SDS011;8918;52.092;5.232;2023-06-22T03:24:20;10.10;;;8.63;;
17598;SDS011;8918;52.092;5.232;2023-06-22T03:26:45;10.45;;;8.85;;
17598;SDS011;8918;52.092;5.232;2023-06-22T03:29:11;10.15;;;8.57;;
17598;SDS011;8918;52.092;5.232;2023-06-22T03:31:37;11.18;;;8.57;;
17598;SDS011;8918;52.092;5.232;2023-06-22T03:34:03;13.77;;;9.55;;
17598;SDS011;8918;52.092;5.232;2023-06-22T03:36:28;12.32;;;9.05;;
17598;SDS011;8918;52.092;5.232;2023-06-22T03:38:54;11.95;;;9.32;;
17598;SDS011;8918;52.092;5.232;2023-06-22T03:41:20;11.50;;;9.48;;
17598;SDS011;8918;52.092;5.232;2023-06-22T03:43:45;11.85;;;10.02;;
17598;SDS011;8918;52.092;5.232;2023-06-22T03:46:11;12.15;;;9.85;;
17598;SDS011;8918;52.092;5.232;2023-06-22T03:48:37;10.73;;;9.63;;
17598;SDS011;8918;52.092;5.232;2023-06-22T03:51:03;13.73;;;10.02;;
17598;SDS011;8918;52.092;5.232;2023-06-22T03:53:29;13.75;;;11.00;;
17598;SDS011;8918;52.092;5.232;2023-06-22T03:55:54;12.20;;;10.40;;
17598;SDS011;8918;52.092;5.232;2023-06-22T03:58:20;15.68;;;11.52;;
17598;SDS011;8918;52.092;5.232;2023-06-22T04:00:47;13.75;;;11.75;;
17598;SDS011;8918;52.092;5.232;2023-06-22T04:03:14;13.05;;;11.30;;
17598;SDS011;8918;52.092;5.232;2023-06-22T04:05:40;16.08;;;12.35;;
17598;SDS011;8918;52.092;5.232;2023-06-22T04:08:06;14.35;;;11.88;;
17598;SDS011;8918;52.092;5.232;2023-06-22T04:10:32;16.73;;;12.73;;
17598;SDS011;8918;52.092;5.232;2023-06-22T04:12:58;13.50;;;11.13;;
17598;SDS011;8918;52.092;5.232;2023-06-22T04:15:23;15.57;;;12.93;;
17598;SDS011;8918;52.092;5.232;2023-06-22T04:17:49;13.55;;;11.85;;
17598;SDS011;8918;52.092;5.232;2023-06-22T04:20:14;13.93;;;12.10;;
17598;SDS011;8918;52.092;5.232;2023-06-22T04:22:40;13.90;;;11.50;;
17598;SDS011;8918;52.092;5.232;2023-06-22T04:25:06;14.95;;;12.77;;
17598;SDS011;8918;52.092;5.232;2023-06-22T04:27:35;13.57;;;12.00;;
17598;SDS011;8918;52.092;5.232;2023-06-22T04:30:03;13.95;;;11.32;;
17598;SDS011;8918;52.092;5.232;2023-06-22T04:32:29;14.65;;;12.40;;
17598;SDS011;8918;52.092;5.232;2023-06-22T04:34:54;15.40;;;12.85;;
17598;SDS011;8918;52.092;5.232;2023-06-22T04:37:20;14.88;;;12.85;;
17598;SDS011;8918;52.092;5.232;2023-06-22T04:39:48;16.05;;;13.35;;
17598;SDS011;8918;52.092;5.232;2023-06-22T04:42:15;15.98;;;12.35;;
17598;SDS011;8918;52.092;5.232;2023-06-22T04:44:40;16.55;;;13.35;;
17598;SDS011;8918;52.092;5.232;2023-06-22T04:47:07;15.32;;;13.15;;
17598;SDS011;8918;52.092;5.232;2023-06-22T04:49:36;16.95;;;13.95;;
17598;SDS011;8918;52.092;5.232;2023-06-22T04:54:28;22.75;;;14.27;;
17598;SDS011;8918;52.092;5.232;2023-06-22T04:56:54;16.85;;;13.57;;
17598;SDS011;8918;52.092;5.232;2023-06-22T04:59:27;15.95;;;13.77;;
17598;SDS011;8918;52.092;5.232;2023-06-22T05:02:00;17.55;;;14.07;;
17598;SDS011;8918;52.092;5.232;2023-06-22T05:04:27;17.23;;;13.60;;
17598;SDS011;8918;52.092;5.232;2023-06-22T05:06:56;17.90;;;14.85;;
17598;SDS011;8918;52.092;5.232;2023-06-22T05:09:22;16.95;;;13.85;;
17598;SDS011;8918;52.092;5.232;2023-06-22T05:11:48;17.23;;;13.98;;
17598;SDS011;8918;52.092;5.232;2023-06-22T05:14:14;17.67;;;14.27;;
17598;SDS011;8918;52.092;5.232;2023-06-22T05:16:40;18.23;;;14.02;;
17598;SDS011;8918;52.092;5.232;2023-06-22T05:19:07;16.98;;;14.20;;
17598;SDS011;8918;52.092;5.232;2023-06-22T05:21:33;15.07;;;13.18;;
17598;SDS011;8918;52.092;5.232;2023-06-22T05:23:58;14.80;;;13.18;;
17598;SDS011;8918;52.092;5.232;2023-06-22T05:26:31;17.20;;;13.73;;
17598;SDS011;8918;52.092;5.232;2023-06-22T05:28:58;15.07;;;13.48;;
17598;SDS011;8918;52.092;5.232;2023-06-22T05:31:25;16.50;;;13.80;;
17598;SDS011;8918;52.092;5.232;2023-06-22T05:33:51;17.98;;;14.73;;
17598;SDS011;8918;52.092;5.232;2023-06-22T05:36:18;18.75;;;15.52;;
17598;SDS011;8918;52.092;5.232;2023-06-22T05:38:50;20.58;;;16.70;;
17598;SDS011;8918;52.092;5.232;2023-06-22T05:41:16;20.23;;;16.13;;
17598;SDS011;8918;52.092;5.232;2023-06-22T05:43:42;19.10;;;16.92;;
17598;SDS011;8918;52.092;5.232;2023-06-22T05:46:07;21.20;;;16.75;;
17598;SDS011;8918;52.092;5.232;2023-06-22T05:48:33;23.10;;;17.73;;
17598;SDS011;8918;52.092;5.232;2023-06-22T05:50:58;21.77;;;17.58;;
17598;SDS011;8918;52.092;5.232;2023-06-22T05:53:24;22.25;;;17.25;;
17598;SDS011;8918;52.092;5.232;2023-06-22T05:55:50;20.65;;;16.77;;
17598;SDS011;8918;52.092;5.232;2023-06-22T05:58:15;20.98;;;15.57;;
17598;SDS011;8918;52.092;5.232;2023-06-22T06:00:41;21.00;;;17.05;;
17598;SDS011;8918;52.092;5.232;2023-06-22T06:03:08;21.88;;;18.38;;
17598;SDS011;8918;52.092;5.232;2023-06-22T06:05:35;25.02;;;19.73;;
17598;SDS011;8918;52.092;5.232;2023-06-22T06:08:02;22.70;;;19.23;;
17598;SDS011;8918;52.092;5.232;2023-06-22T06:10:30;20.60;;;16.88;;
17598;SDS011;8918;52.092;5.232;2023-06-22T06:12:56;23.75;;;19.92;;
17598;SDS011;8918;52.092;5.232;2023-06-22T06:15:22;21.17;;;18.38;;
17598;SDS011;8918;52.092;5.232;2023-06-22T06:17:51;21.90;;;18.95;;
17598;SDS011;8918;52.092;5.232;2023-06-22T06:22:45;22.45;;;19.58;;
17598;SDS011;8918;52.092;5.232;2023-06-22T06:25:11;21.20;;;17.27;;
17598;SDS011;8918;52.092;5.232;2023-06-22T06:27:41;22.08;;;18.10;;
17598;SDS011;8918;52.092;5.232;2023-06-22T06:30:11;20.30;;;17.42;;
17598;SDS011;8918;52.092;5.232;2023-06-22T06:32:37;25.25;;;19.92;;
17598;SDS011;8918;52.092;5.232;2023-06-22T06:35:06;23.35;;;19.05;;
17598;SDS011;8918;52.092;5.232;2023-06-22T06:37:35;25.15;;;20.27;;
17598;SDS011;8918;52.092;5.232;2023-06-22T06:40:02;19.90;;;16.92;;
17598;SDS011;8918;52.092;5.232;2023-06-22T06:42:30;20.55;;;17.45;;
17598;SDS011;8918;52.092;5.232;2023-06-22T06:44:56;23.60;;;17.92;;
17598;SDS011;8918;52.092;5.232;2023-06-22T06:47:22;20.77;;;16.88;;
17598;SDS011;8918;52.092;5.232;2023-06-22T06:49:47;21.02;;;17.88;;
17598;SDS011;8918;52.092;5.232;2023-06-22T06:52:13;19.60;;;17.50;;
17598;SDS011;8918;52.092;5.232;2023-06-22T06:54:38;21.73;;;17.60;;
17598;SDS011;8918;52.092;5.232;2023-06-22T06:57:04;21.48;;;17.80;;
17598;SDS011;8918;52.092;5.232;2023-06-22T06:59:30;22.58;;;20.00;;
17598;SDS011;8918;52.092;5.232;2023-06-22T07:01:55;20.20;;;17.92;;
17598;SDS011;8918;52.092;5.232;2023-06-22T07:04:21;20.10;;;16.27;;
17598;SDS011;8918;52.092;5.232;2023-06-22T07:06:46;21.98;;;18.55;;
17598;SDS011;8918;52.092;5.232;2023-06-22T07:09:12;18.85;;;16.10;;
17598;SDS011;8918;52.092;5.232;2023-06-22T07:11:38;20.77;;;16.08;;
17598;SDS011;8918;52.092;5.232;2023-06-22T07:14:03;22.55;;;18.67;;
17598;SDS011;8918;52.092;5.232;2023-06-22T07:16:29;18.52;;;16.38;;
17598;SDS011;8918;52.092;5.232;2023-06-22T07:18:56;17.33;;;15.30;;
17598;SDS011;8918;52.092;5.232;2023-06-22T07:21:22;18.55;;;15.23;;
17598;SDS011;8918;52.092;5.232;2023-06-22T07:23:47;17.90;;;15.15;;
17598;SDS011;8918;52.092;5.232;2023-06-22T07:26:13;16.42;;;14.55;;
17598;SDS011;8918;52.092;5.232;2023-06-22T07:28:38;17.13;;;13.75;;
17598;SDS011;8918;52.092;5.232;2023-06-22T07:31:05;13.38;;;11.60;;
17598;SDS011;8918;52.092;5.232;2023-06-22T07:33:31;12.63;;;11.07;;
17598;SDS011;8918;52.092;5.232;2023-06-22T07:35:57;14.95;;;11.95;;
17598;SDS011;8918;52.092;5.232;2023-06-22T07:38:22;16.85;;;14.05;;
17598;SDS011;8918;52.092;5.232;2023-06-22T07:40:48;17.38;;;13.50;;
17598;SDS011;8918;52.092;5.232;2023-06-22T07:43:15;13.73;;;12.07;;
17598;SDS011;8918;52.092;5.232;2023-06-22T07:45:43;15.15;;;13.40;;
17598;SDS011;8918;52.092;5.232;2023-06-22T07:48:17;15.15;;;12.63;;
17598;SDS011;8918;52.092;5.232;2023-06-22T07:50:44;15.48;;;13.30;;
17598;SDS011;8918;52.092;5.232;2023-06-22T07:53:10;17.48;;;14.38;;
17598;SDS011;8918;52.092;5.232;2023-06-22T07:55:36;15.18;;;13.35;;
17598;SDS011;8918;52.092;5.232;2023-06-22T07:58:01;16.38;;;14.65;;
17598;SDS011;8918;52.092;5.232;2023-06-22T08:00:27;17.48;;;14.05;;
17598;SDS011;8918;52.092;5.232;2023-06-22T08:02:52;16.27;;;12.75;;
17598;SDS011;8918;52.092;5.232;2023-06-22T08:05:18;14.75;;;11.90;;
17598;SDS011;8918;52.092;5.232;2023-06-22T08:07:44;12.05;;;9.88;;
17598;SDS011;8918;52.092;5.232;2023-06-22T08:10:10;11.10;;;9.90;;
17598;SDS011;8918;52.092;5.232;2023-06-22T08:12:37;10.68;;;9.60;;
17598;SDS011;8918;52.092;5.232;2023-06-22T08:15:03;11.50;;;9.68;;
17598;SDS011;8918;52.092;5.232;2023-06-22T08:17:30;11.10;;;9.88;;
17598;SDS011;8918;52.092;5.232;2023-06-22T08:19:56;10.95;;;9.60;;
17598;SDS011;8918;52.092;5.232;2023-06-22T08:22:21;11.10;;;8.88;;
17598;SDS011;8918;52.092;5.232;2023-06-22T08:24:47;10.98;;;8.98;;
17598;SDS011;8918;52.092;5.232;2023-06-22T08:27:13;14.48;;;9.57;;
17598;SDS011;8918;52.092;5.232;2023-06-22T08:29:40;11.30;;;8.90;;
17598;SDS011;8918;52.092;5.232;2023-06-22T08:32:08;10.23;;;8.73;;
17598;SDS011;8918;52.092;5.232;2023-06-22T08:34:34;14.02;;;9.20;;
17598;SDS011;8918;52.092;5.232;2023-06-22T08:37:01;8.68;;;7.78;;
17598;SDS011;8918;52.092;5.232;2023-06-22T08:39:26;9.90;;;7.60;;
17598;SDS011;8918;52.092;5.232;2023-06-22T08:41:52;8.45;;;7.38;;
17598;SDS011;8918;52.092;5.232;2023-06-22T08:44:18;8.27;;;7.47;;
17598;SDS011;8918;52.092;5.232;2023-06-22T08:46:45;9.73;;;7.30;;
17598;SDS011;8918;52.092;5.232;2023-06-22T08:49:10;7.88;;;6.38;;
17598;SDS011;8918;52.092;5.232;2023-06-22T08:51:36;7.82;;;6.35;;
17598;SDS011;8918;52.092;5.232;2023-06-22T08:54:01;7.43;;;6.68;;
17598;SDS011;8918;52.092;5.232;2023-06-22T08:56:27;7.22;;;6.53;;
17598;SDS011;8918;52.092;5.232;2023-06-22T08:58:53;7.88;;;6.40;;
17598;SDS011;8918;52.092;5.232;2023-06-22T09:01:18;7.20;;;5.90;;
17598;SDS011;8918;52.092;5.232;2023-06-22T09:03:44;6.95;;;6.25;;
17598;SDS011;8918;52.092;5.232;2023-06-22T09:06:18;7.75;;;5.30;;
17598;SDS011;8918;52.092;5.232;2023-06-22T09:08:45;8.02;;;6.18;;
17598;SDS011;8918;52.092;5.232;2023-06-22T09:11:12;6.53;;;5.30;;
17598;SDS011;8918;52.092;5.232;2023-06-22T09:13:37;5.18;;;4.53;;
17598;SDS011;8918;52.092;5.232;2023-06-22T09:16:03;6.75;;;5.47;;
17598;SDS011;8918;52.092;5.232;2023-06-22T09:18:29;8.30;;;6.70;;
17598;SDS011;8918;52.092;5.232;2023-06-22T09:20:54;7.90;;;6.22;;
17598;SDS011;8918;52.092;5.232;2023-06-22T09:23:20;6.72;;;6.10;;
17598;SDS011;8918;52.092;5.232;2023-06-22T09:25:45;6.65;;;5.25;;
17598;SDS011;8918;52.092;5.232;2023-06-22T09:28:12;6.65;;;5.30;;
17598;SDS011;8918;52.092;5.232;2023-06-22T09:30:39;5.60;;;4.65;;
17598;SDS011;8918;52.092;5.232;2023-06-22T09:33:04;5.70;;;4.07;;
17598;SDS011;8918;52.092;5.232;2023-06-22T09:35:30;6.53;;;4.35;;
17598;SDS011;8918;52.092;5.232;2023-06-22T09:37:56;11.73;;;4.55;;
17598;SDS011;8918;52.092;5.232;2023-06-22T09:40:21;6.25;;;4.72;;
17598;SDS011;8918;52.092;5.232;2023-06-22T09:42:47;5.75;;;4.10;;
17598;SDS011;8918;52.092;5.232;2023-06-22T09:45:13;5.57;;;4.03;;
17598;SDS011;8918;52.092;5.232;2023-06-22T09:47:38;5.80;;;4.30;;
17598;SDS011;8918;52.092;5.232;2023-06-22T09:50:04;4.93;;;3.83;;
17598;SDS011;8918;52.092;5.232;2023-06-22T09:52:31;4.80;;;4.30;;
17598;SDS011;8918;52.092;5.232;2023-06-22T09:54:56;4.32;;;3.67;;
17598;SDS011;8918;52.092;5.232;2023-06-22T09:57:22;3.88;;;3.40;;
17598;SDS011;8918;52.092;5.232;2023-06-22T09:59:48;7.70;;;4.97;;
17598;SDS011;8918;52.092;5.232;2023-06-22T10:02:13;5.03;;;4.60;;
17598;SDS011;8918;52.092;5.232;2023-06-22T10:04:39;9.32;;;5.93;;
17598;SDS011;8918;52.092;5.232;2023-06-22T10:07:05;6.57;;;5.10;;
17598;SDS011;8918;52.092;5.232;2023-06-22T10:09:31;6.38;;;5.53;;
17598;SDS011;8918;52.092;5.232;2023-06-22T10:11:56;8.07;;;4.70;;
17598;SDS011;8918;52.092;5.232;2023-06-22T10:14:22;6.00;;;5.03;;
17598;SDS011;8918;52.092;5.232;2023-06-22T10:16:49;6.38;;;4.88;;
17598;SDS011;8918;52.092;5.232;2023-06-22T10:19:16;7.47;;;5.40;;
17598;SDS011;8918;52.092;5.232;2023-06-22T10:21:41;7.05;;;5.15;;
17598;SDS011;8918;52.092;5.232;2023-06-22T10:24:07;5.35;;;4.85;;
17598;SDS011;8918;52.092;5.232;2023-06-22T10:26:33;6.25;;;5.60;;
17598;SDS011;8918;52.092;5.232;2023-06-22T10:29:00;6.65;;;6.05;;
17598;SDS011;8918;52.092;5.232;2023-06-22T10:31:26;8.35;;;5.45;;
17598;SDS011;8918;52.092;5.232;2023-06-22T10:33:52;7.28;;;5.88;;
17598;SDS011;8918;52.092;5.232;2023-06-22T10:36:19;7.18;;;5.90;;
17598;SDS011;8918;52.092;5.232;2023-06-22T10:38:44;6.32;;;5.47;;
17598;SDS011;8918;52.092;5.232;2023-06-22T10:41:12;12.05;;;5.30;;
17598;SDS011;8918;52.092;5.232;2023-06-22T10:43:37;7.82;;;5.75;;
17598;SDS011;8918;52.092;5.232;2023-06-22T10:46:03;6.95;;;6.25;;
17598;SDS011;8918;52.092;5.232;2023-06-22T10:48:29;7.43;;;6.63;;
17598;SDS011;8918;52.092;5.232;2023-06-22T10:50:54;8.77;;;6.97;;
17598;SDS011;8918;52.092;5.232;2023-06-22T10:53:20;6.90;;;6.20;;
17598;SDS011;8918;52.092;5.232;2023-06-22T10:55:46;7.45;;;6.57;;
17598;SDS011;8918;52.092;5.232;2023-06-22T10:58:12;10.05;;;6.63;;
17598;SDS011;8918;52.092;5.232;2023-06-22T11:00:37;8.48;;;6.00;;
17598;SDS011;8918;52.092;5.232;2023-06-22T11:03:03;7.40;;;5.82;;
17598;SDS011;8918;52.092;5.232;2023-06-22T11:05:29;6.45;;;5.68;;
17598;SDS011;8918;52.092;5.232;2023-06-22T11:07:54;10.80;;;7.28;;
17598;SDS011;8918;52.092;5.232;2023-06-22T11:10:20;10.25;;;7.95;;
17598;SDS011;8918;52.092;5.232;2023-06-22T11:12:46;10.10;;;8.05;;
17598;SDS011;8918;52.092;5.232;2023-06-22T11:15:11;12.38;;;8.68;;
17598;SDS011;8918;52.092;5.232;2023-06-22T11:17:37;8.60;;;7.25;;
17598;SDS011;8918;52.092;5.232;2023-06-22T11:20:03;10.10;;;8.90;;
17598;SDS011;8918;52.092;5.232;2023-06-22T11:22:42;11.13;;;8.95;;
17598;SDS011;8918;52.092;5.232;2023-06-22T11:25:08;11.88;;;9.43;;
17598;SDS011;8918;52.092;5.232;2023-06-22T11:27:36;12.73;;;9.45;;
17598;SDS011;8918;52.092;5.232;2023-06-22T11:30:02;9.88;;;8.63;;
17598;SDS011;8918;52.092;5.232;2023-06-22T11:32:28;11.75;;;9.40;;
17598;SDS011;8918;52.092;5.232;2023-06-22T11:34:53;11.82;;;8.38;;
17598;SDS011;8918;52.092;5.232;2023-06-22T11:37:19;12.48;;;8.40;;
17598;SDS011;8918;52.092;5.232;2023-06-22T11:39:45;10.98;;;9.30;;
17598;SDS011;8918;52.092;5.232;2023-06-22T11:42:10;9.20;;;8.15;;
17598;SDS011;8918;52.092;5.232;2023-06-22T11:44:36;9.75;;;8.80;;
17598;SDS011;8918;52.092;5.232;2023-06-22T11:47:02;10.52;;;8.30;;
17598;SDS011;8918;52.092;5.232;2023-06-22T11:49:29;11.45;;;8.27;;
17598;SDS011;8918;52.092;5.232;2023-06-22T11:51:55;6.85;;;5.80;;
17598;SDS011;8918;52.092;5.232;2023-06-22T11:54:21;7.53;;;6.50;;
17598;SDS011;8918;52.092;5.232;2023-06-22T11:56:46;7.78;;;6.28;;
17598;SDS011;8918;52.092;5.232;2023-06-22T11:59:12;10.07;;;7.15;;
17598;SDS011;8918;52.092;5.232;2023-06-22T12:01:38;6.72;;;5.93;;
17598;SDS011;8918;52.092;5.232;2023-06-22T12:04:04;7.97;;;6.18;;
17598;SDS011;8918;52.092;5.232;2023-06-22T12:06:31;7.88;;;6.63;;
17598;SDS011;8918;52.092;5.232;2023-06-22T12:08:57;8.75;;;6.43;;
17598;SDS011;8918;52.092;5.232;2023-06-22T12:11:23;9.77;;;6.40;;
17598;SDS011;8918;52.092;5.232;2023-06-22T12:13:49;11.05;;;6.70;;
17598;SDS011;8918;52.092;5.232;2023-06-22T12:16:14;13.32;;;9.18;;
17598;SDS011;8918;52.092;5.232;2023-06-22T12:18:40;12.93;;;8.45;;
17598;SDS011;8918;52.092;5.232;2023-06-22T12:21:05;11.10;;;8.27;;
17598;SDS011;8918;52.092;5.232;2023-06-22T12:23:31;10.00;;;8.10;;
17598;SDS011;8918;52.092;5.232;2023-06-22T12:25:57;8.45;;;6.55;;
17598;SDS011;8918;52.092;5.232;2023-06-22T12:28:24;10.48;;;8.55;;
17598;SDS011;8918;52.092;5.232;2023-06-22T12:30:50;10.38;;;8.80;;
17598;SDS011;8918;52.092;5.232;2023-06-22T12:33:15;11.57;;;8.27;;
17598;SDS011;8918;52.092;5.232;2023-06-22T12:35:41;13.65;;;9.23;;
17598;SDS011;8918;52.092;5.232;2023-06-22T12:38:06;11.45;;;7.90;;
17598;SDS011;8918;52.092;5.232;2023-06-22T12:40:33;10.18;;;7.78;;
17598;SDS011;8918;52.092;5.232;2023-06-22T12:42:58;11.90;;;9.05;;
17598;SDS011;8918;52.092;5.232;2023-06-22T12:45:24;10.13;;;9.10;;
17598;SDS011;8918;52.092;5.232;2023-06-22T12:47:53;10.05;;;8.07;;
17598;SDS011;8918;52.092;5.232;2023-06-22T12:50:19;9.90;;;8.30;;
17598;SDS011;8918;52.092;5.232;2023-06-22T12:52:45;11.07;;;7.65;;
17598;SDS011;8918;52.092;5.232;2023-06-22T12:55:10;12.68;;;8.82;;
17598;SDS011;8918;52.092;5.232;2023-06-22T12:57:36;11.43;;;9.40;;
17598;SDS011;8918;52.092;5.232;2023-06-22T13:00:02;12.40;;;10.00;;
17598;SDS011;8918;52.092;5.232;2023-06-22T13:02:29;9.57;;;8.57;;
17598;SDS011;8918;52.092;5.232;2023-06-22T13:04:55;13.38;;;10.43;;
17598;SDS011;8918;52.092;5.232;2023-06-22T13:07:20;10.80;;;9.43;;
17598;SDS011;8918;52.092;5.232;2023-06-22T13:09:46;13.95;;;11.20;;
17598;SDS011;8918;52.092;5.232;2023-06-22T13:12:16;14.55;;;12.45;;
17598;SDS011;8918;52.092;5.232;2023-06-22T13:14:41;14.20;;;12.40;;
17598;SDS011;8918;52.092;5.232;2023-06-22T13:17:08;14.85;;;13.13;;
17598;SDS011;8918;52.092;5.232;2023-06-22T13:19:34;13.95;;;12.40;;
17598;SDS011;8918;52.092;5.232;2023-06-22T13:21:59;16.23;;;13.30;;
17598;SDS011;8918;52.092;5.232;2023-06-22T13:24:25;15.55;;;12.43;;
17598;SDS011;8918;52.092;5.232;2023-06-22T13:26:51;15.20;;;12.88;;
17598;SDS011;8918;52.092;5.232;2023-06-22T13:29:16;15.38;;;13.88;;
17598;SDS011;8918;52.092;5.232;2023-06-22T13:31:42;17.35;;;14.07;;
17598;SDS011;8918;52.092;5.232;2023-06-22T13:34:07;15.45;;;13.85;;
17598;SDS011;8918;52.092;5.232;2023-06-22T13:36:33;17.33;;;14.80;;
17598;SDS011;8918;52.092;5.232;2023-06-22T13:38:59;18.33;;;15.70;;
17598;SDS011;8918;52.092;5.232;2023-06-22T13:41:24;17.38;;;14.05;;
17598;SDS011;8918;52.092;5.232;2023-06-22T13:43:50;19.00;;;16.17;;
17598;SDS011;8918;52.092;5.232;2023-06-22T13:46:16;18.55;;;16.65;;
17598;SDS011;8918;52.092;5.232;2023-06-22T13:48:42;19.17;;;17.17;;
17598;SDS011;8918;52.092;5.232;2023-06-22T13:51:07;17.17;;;15.35;;
17598;SDS011;8918;52.092;5.232;2023-06-22T13:53:33;18.85;;;16.45;;
17598;SDS011;8918;52.092;5.232;2023-06-22T13:55:58;19.30;;;16.27;;
17598;SDS011;8918;52.092;5.232;2023-06-22T13:58:24;20.77;;;18.05;;
17598;SDS011;8918;52.092;5.232;2023-06-22T14:00:49;20.58;;;18.20;;
17598;SDS011;8918;52.092;5.232;2023-06-22T14:03:15;20.55;;;18.52;;
17598;SDS011;8918;52.092;5.232;2023-06-22T14:05:41;20.33;;;18.23;;
17598;SDS011;8918;52.092;5.232;2023-06-22T14:08:07;21.13;;;18.83;;
17598;SDS011;8918;52.092;5.232;2023-06-22T14:10:34;21.98;;;19.10;;
17598;SDS011;8918;52.092;5.232;2023-06-22T14:12:59;21.92;;;19.15;;
17598;SDS011;8918;52.092;5.232;2023-06-22T14:15:25;20.88;;;18.30;;
17598;SDS011;8918;52.092;5.232;2023-06-22T14:17:51;21.75;;;19.45;;
17598;SDS011;8918;52.092;5.232;2023-06-22T14:20:17;21.40;;;19.10;;
17598;SDS011;8918;52.092;5.232;2023-06-22T14:22:43;19.80;;;17.70;;
17598;SDS011;8918;52.092;5.232;2023-06-22T14:25:08;20.70;;;17.30;;
17598;SDS011;8918;52.092;5.232;2023-06-22T14:27:34;19.75;;;17.67;;
17598;SDS011;8918;52.092;5.232;2023-06-22T14:30:00;18.85;;;16.85;;
17598;SDS011;8918;52.092;5.232;2023-06-22T14:32:27;18.23;;;16.42;;
17598;SDS011;8918;52.092;5.232;2023-06-22T14:34:54;19.40;;;17.45;;
17598;SDS011;8918;52.092;5.232;2023-06-22T14:37:20;19.92;;;17.65;;
17598;SDS011;8918;52.092;5.232;2023-06-22T14:39:45;20.48;;;18.33;;
17598;SDS011;8918;52.092;5.232;2023-06-22T14:42:11;19.05;;;17.05;;
17598;SDS011;8918;52.092;5.232;2023-06-22T14:44:37;20.20;;;17.83;;
17598;SDS011;8918;52.092;5.232;2023-06-22T14:47:03;16.80;;;15.10;;
17598;SDS011;8918;52.092;5.232;2023-06-22T14:49:28;17.83;;;16.02;;
17598;SDS011;8918;52.092;5.232;2023-06-22T14:51:54;16.67;;;14.98;;
17598;SDS011;8918;52.092;5.232;2023-06-22T14:54:20;16.90;;;15.23;;
17598;SDS011;8918;52.092;5.232;2023-06-22T14:56:45;17.17;;;15.38;;
17598;SDS011;8918;52.092;5.232;2023-06-22T14:59:12;15.75;;;14.25;;